sensor_id;sensor_type;location;lat;lon;timestamp;P1;durP1;ratioP1;P2;durP2;ratioP2
8050;SDS011;4068;42.158;24.732;2022-10-31T00:00:39;4.32;;;3.45;;
8050;SDS011;4068;42.158;24.732;2022-10-31T00:03:05;6.53;;;3.85;;
8050;SDS011;4068;42.158;24.732;2022-10-31T00:05:30;9.07;;;3.70;;
8050;SDS011;4068;42.158;24.732;2022-10-31T00:07:56;8.73;;;3.40;;
8050;SDS011;4068;42.158;24.732;2022-10-31T00:10:21;4.63;;;3.60;;
8050;SDS011;4068;42.158;24.732;2022-10-31T00:12:46;8.45;;;3.72;;
8050;SDS011;4068;42.158;24.732;2022-10-31T00:15:12;8.90;;;4.55;;
8050;SDS011;4068;42.158;24.732;2022-10-31T00:17:37;8.45;;;3.47;;
8050;SDS011;4068;42.158;24.732;2022-10-31T00:20:03;6.43;;;4.53;;
8050;SDS011;4068;42.158;24.732;2022-10-31T00:22:29;7.03;;;3.63;;
8050;SDS011;4068;42.158;24.732;2022-10-31T00:24:54;7.32;;;4.22;;
8050;SDS011;4068;42.158;24.732;2022-10-31T00:27:19;4.93;;;3.78;;
8050;SDS011;4068;42.158;24.732;2022-10-31T00:29:45;5.07;;;3.50;;
8050;SDS011;4068;42.158;24.732;2022-10-31T00:32:10;5.82;;;3.63;;
8050;SDS011;4068;42.158;24.732;2022-10-31T00:34:35;8.15;;;3.92;;
8050;SDS011;4068;42.158;24.732;2022-10-31T00:37:01;9.05;;;3.88;;
8050;SDS011;4068;42.158;24.732;2022-10-31T00:39:26;5.45;;;3.40;;
8050;SDS011;4068;42.158;24.732;2022-10-31T00:41:51;7.65;;;3.63;;
8050;SDS011;4068;42.158;24.732;2022-10-31T00:44:17;11.23;;;3.58;;
8050;SDS011;4068;42.158;24.732;2022-10-31T00:46:42;7.70;;;4.20;;
8050;SDS011;4068;42.158;24.732;2022-10-31T00:49:07;6.35;;;3.88;;
8050;SDS011;4068;42.158;24.732;2022-10-31T00:51:33;8.63;;;3.63;;
8050;SDS011;4068;42.158;24.732;2022-10-31T00:53:58;8.60;;;3.88;;
8050;SDS011;4068;42.158;24.732;2022-10-31T00:56:24;6.70;;;3.70;;
8050;SDS011;4068;42.158;24.732;2022-10-31T00:58:49;8.95;;;3.22;;
8050;SDS011;4068;42.158;24.732;2022-10-31T01:01:14;6.00;;;3.83;;
8050;SDS011;4068;42.158;24.732;2022-10-31T01:03:40;6.15;;;3.67;;
8050;SDS011;4068;42.158;24.732;2022-10-31T01:06:06;7.68;;;3.42;;
8050;SDS011;4068;42.158;24.732;2022-10-31T01:08:34;8.18;;;3.70;;
8050;SDS011;4068;42.158;24.732;2022-10-31T01:13:29;4.70;;;3.45;;
8050;SDS011;4068;42.158;24.732;2022-10-31T01:15:55;9.05;;;3.55;;
8050;SDS011;4068;42.158;24.732;2022-10-31T01:18:22;5.40;;;3.60;;
8050;SDS011;4068;42.158;24.732;2022-10-31T01:20:56;6.32;;;3.47;;
8050;SDS011;4068;42.158;24.732;2022-10-31T01:23:32;5.95;;;4.10;;
8050;SDS011;4068;42.158;24.732;2022-10-31T01:25:58;6.15;;;3.53;;
8050;SDS011;4068;42.158;24.732;2022-10-31T01:28:45;4.43;;;3.40;;
8050;SDS011;4068;42.158;24.732;2022-10-31T01:31:11;7.15;;;3.30;;
8050;SDS011;4068;42.158;24.732;2022-10-31T01:33:37;8.43;;;3.45;;
8050;SDS011;4068;42.158;24.732;2022-10-31T01:38:38;5.93;;;3.30;;
8050;SDS011;4068;42.158;24.732;2022-10-31T01:41:03;5.57;;;3.50;;
8050;SDS011;4068;42.158;24.732;2022-10-31T01:43:45;5.65;;;3.20;;
8050;SDS011;4068;42.158;24.732;2022-10-31T01:46:24;6.50;;;3.55;;
8050;SDS011;4068;42.158;24.732;2022-10-31T01:48:55;6.78;;;3.58;;
8050;SDS011;4068;42.158;24.732;2022-10-31T01:51:26;4.97;;;3.58;;
8050;SDS011;4068;42.158;24.732;2022-10-31T01:54:01;10.40;;;3.45;;
8050;SDS011;4068;42.158;24.732;2022-10-31T01:56:30;8.45;;;4.15;;
8050;SDS011;4068;42.158;24.732;2022-10-31T01:58:59;8.73;;;3.65;;
8050;SDS011;4068;42.158;24.732;2022-10-31T02:01:26;7.10;;;3.97;;
8050;SDS011;4068;42.158;24.732;2022-10-31T02:03:53;7.85;;;3.22;;
8050;SDS011;4068;42.158;24.732;2022-10-31T02:09:04;9.95;;;3.92;;
8050;SDS011;4068;42.158;24.732;2022-10-31T02:11:31;10.20;;;3.60;;
8050;SDS011;4068;42.158;24.732;2022-10-31T02:13:58;10.50;;;3.50;;
8050;SDS011;4068;42.158;24.732;2022-10-31T02:16:25;5.03;;;3.40;;
8050;SDS011;4068;42.158;24.732;2022-10-31T02:18:51;7.80;;;3.75;;
8050;SDS011;4068;42.158;24.732;2022-10-31T02:21:18;4.07;;;3.20;;
8050;SDS011;4068;42.158;24.732;2022-10-31T02:24:00;4.80;;;3.20;;
8050;SDS011;4068;42.158;24.732;2022-10-31T02:26:43;8.48;;;3.60;;
8050;SDS011;4068;42.158;24.732;2022-10-31T02:42:57;8.32;;;3.35;;
8050;SDS011;4068;42.158;24.732;2022-10-31T02:45:39;5.45;;;3.00;;
8050;SDS011;4068;42.158;24.732;2022-10-31T02:48:21;6.10;;;3.00;;
8050;SDS011;4068;42.158;24.732;2022-10-31T02:50:56;7.20;;;3.83;;
8050;SDS011;4068;42.158;24.732;2022-10-31T02:53:25;6.88;;;3.30;;
8050;SDS011;4068;42.158;24.732;2022-10-31T02:55:54;11.77;;;3.55;;
8050;SDS011;4068;42.158;24.732;2022-10-31T02:58:24;6.25;;;3.45;;
8050;SDS011;4068;42.158;24.732;2022-10-31T03:01:36;4.13;;;3.10;;
8050;SDS011;4068;42.158;24.732;2022-10-31T03:06:30;8.07;;;3.15;;
8050;SDS011;4068;42.158;24.732;2022-10-31T03:09:33;5.32;;;3.22;;
8050;SDS011;4068;42.158;24.732;2022-10-31T03:15:11;7.82;;;3.00;;
8050;SDS011;4068;42.158;24.732;2022-10-31T03:20:21;9.02;;;3.22;;
8050;SDS011;4068;42.158;24.732;2022-10-31T03:22:51;6.15;;;3.22;;
8050;SDS011;4068;42.158;24.732;2022-10-31T03:25:20;8.13;;;3.40;;
8050;SDS011;4068;42.158;24.732;2022-10-31T03:27:45;11.43;;;3.47;;
8050;SDS011;4068;42.158;24.732;2022-10-31T03:30:12;5.28;;;3.25;;
8050;SDS011;4068;42.158;24.732;2022-10-31T03:32:42;5.68;;;3.20;;
8050;SDS011;4068;42.158;24.732;2022-10-31T03:35:12;8.30;;;3.45;;
8050;SDS011;4068;42.158;24.732;2022-10-31T03:37:40;5.72;;;2.90;;
8050;SDS011;4068;42.158;24.732;2022-10-31T03:40:08;4.95;;;3.25;;
8050;SDS011;4068;42.158;24.732;2022-10-31T03:42:40;4.68;;;3.20;;
8050;SDS011;4068;42.158;24.732;2022-10-31T03:47:35;8.20;;;4.20;;
8050;SDS011;4068;42.158;24.732;2022-10-31T03:50:04;9.68;;;3.70;;
8050;SDS011;4068;42.158;24.732;2022-10-31T03:52:35;7.50;;;3.58;;
8050;SDS011;4068;42.158;24.732;2022-10-31T03:55:10;7.18;;;3.40;;
8050;SDS011;4068;42.158;24.732;2022-10-31T04:00:14;6.53;;;4.15;;
8050;SDS011;4068;42.158;24.732;2022-10-31T04:02:42;5.75;;;3.80;;
8050;SDS011;4068;42.158;24.732;2022-10-31T04:05:13;6.05;;;3.78;;
8050;SDS011;4068;42.158;24.732;2022-10-31T04:07:42;6.55;;;3.50;;
8050;SDS011;4068;42.158;24.732;2022-10-31T04:10:12;10.25;;;4.80;;
8050;SDS011;4068;42.158;24.732;2022-10-31T04:12:40;11.38;;;3.92;;
8050;SDS011;4068;42.158;24.732;2022-10-31T04:15:09;7.60;;;3.45;;
8050;SDS011;4068;42.158;24.732;2022-10-31T04:17:38;10.45;;;4.10;;
8050;SDS011;4068;42.158;24.732;2022-10-31T04:20:07;8.70;;;3.80;;
8050;SDS011;4068;42.158;24.732;2022-10-31T04:22:33;11.38;;;4.18;;
8050;SDS011;4068;42.158;24.732;2022-10-31T04:24:58;6.88;;;3.90;;
8050;SDS011;4068;42.158;24.732;2022-10-31T04:27:24;6.47;;;3.75;;
8050;SDS011;4068;42.158;24.732;2022-10-31T04:29:49;8.55;;;4.25;;
8050;SDS011;4068;42.158;24.732;2022-10-31T04:32:14;12.00;;;4.40;;
8050;SDS011;4068;42.158;24.732;2022-10-31T04:34:40;9.48;;;4.97;;
8050;SDS011;4068;42.158;24.732;2022-10-31T04:37:05;8.32;;;4.22;;
8050;SDS011;4068;42.158;24.732;2022-10-31T04:39:31;5.80;;;3.63;;
8050;SDS011;4068;42.158;24.732;2022-10-31T04:41:56;9.30;;;4.05;;
8050;SDS011;4068;42.158;24.732;2022-10-31T04:44:21;6.00;;;3.67;;
8050;SDS011;4068;42.158;24.732;2022-10-31T04:46:47;9.60;;;4.68;;
8050;SDS011;4068;42.158;24.732;2022-10-31T04:49:12;4.65;;;3.75;;
8050;SDS011;4068;42.158;24.732;2022-10-31T04:51:38;8.43;;;3.95;;
8050;SDS011;4068;42.158;24.732;2022-10-31T04:54:03;7.03;;;3.40;;
8050;SDS011;4068;42.158;24.732;2022-10-31T04:56:29;5.95;;;3.78;;
8050;SDS011;4068;42.158;24.732;2022-10-31T04:58:54;10.82;;;3.45;;
8050;SDS011;4068;42.158;24.732;2022-10-31T05:01:20;15.57;;;3.60;;
8050;SDS011;4068;42.158;24.732;2022-10-31T05:03:45;7.63;;;3.50;;
8050;SDS011;4068;42.158;24.732;2022-10-31T05:06:11;5.72;;;4.05;;
8050;SDS011;4068;42.158;24.732;2022-10-31T05:08:36;7.72;;;3.97;;
8050;SDS011;4068;42.158;24.732;2022-10-31T05:11:02;8.35;;;4.20;;
8050;SDS011;4068;42.158;24.732;2022-10-31T05:13:28;7.53;;;4.07;;
8050;SDS011;4068;42.158;24.732;2022-10-31T05:15:54;15.95;;;5.00;;
8050;SDS011;4068;42.158;24.732;2022-10-31T05:18:19;9.35;;;4.82;;
8050;SDS011;4068;42.158;24.732;2022-10-31T05:20:45;13.05;;;4.20;;
8050;SDS011;4068;42.158;24.732;2022-10-31T05:23:10;5.53;;;4.03;;
8050;SDS011;4068;42.158;24.732;2022-10-31T05:25:36;11.38;;;4.15;;
8050;SDS011;4068;42.158;24.732;2022-10-31T05:28:01;5.65;;;4.25;;
8050;SDS011;4068;42.158;24.732;2022-10-31T05:30:28;9.40;;;4.15;;
8050;SDS011;4068;42.158;24.732;2022-10-31T05:32:55;6.50;;;3.90;;
8050;SDS011;4068;42.158;24.732;2022-10-31T05:35:22;11.40;;;4.35;;
8050;SDS011;4068;42.158;24.732;2022-10-31T05:37:52;8.32;;;4.10;;
8050;SDS011;4068;42.158;24.732;2022-10-31T05:40:18;8.13;;;4.10;;
8050;SDS011;4068;42.158;24.732;2022-10-31T05:42:45;6.28;;;3.72;;
8050;SDS011;4068;42.158;24.732;2022-10-31T05:45:12;7.65;;;3.60;;
8050;SDS011;4068;42.158;24.732;2022-10-31T05:47:39;6.15;;;4.05;;
8050;SDS011;4068;42.158;24.732;2022-10-31T05:50:05;9.50;;;3.72;;
8050;SDS011;4068;42.158;24.732;2022-10-31T05:52:32;14.50;;;5.18;;
8050;SDS011;4068;42.158;24.732;2022-10-31T05:54:58;9.30;;;4.15;;
8050;SDS011;4068;42.158;24.732;2022-10-31T05:57:23;9.27;;;3.88;;
8050;SDS011;4068;42.158;24.732;2022-10-31T05:59:49;7.10;;;4.10;;
8050;SDS011;4068;42.158;24.732;2022-10-31T06:02:17;8.32;;;3.75;;
8050;SDS011;4068;42.158;24.732;2022-10-31T06:04:46;6.78;;;4.47;;
8050;SDS011;4068;42.158;24.732;2022-10-31T06:07:12;7.47;;;3.95;;
8050;SDS011;4068;42.158;24.732;2022-10-31T06:09:37;13.52;;;4.47;;
8050;SDS011;4068;42.158;24.732;2022-10-31T06:12:03;6.25;;;4.03;;
8050;SDS011;4068;42.158;24.732;2022-10-31T06:14:28;14.55;;;3.97;;
8050;SDS011;4068;42.158;24.732;2022-10-31T06:16:54;11.50;;;4.50;;
8050;SDS011;4068;42.158;24.732;2022-10-31T06:19:20;12.10;;;4.35;;
8050;SDS011;4068;42.158;24.732;2022-10-31T06:21:45;13.75;;;5.00;;
8050;SDS011;4068;42.158;24.732;2022-10-31T06:24:11;8.88;;;4.20;;
8050;SDS011;4068;42.158;24.732;2022-10-31T06:26:36;12.70;;;4.30;;
8050;SDS011;4068;42.158;24.732;2022-10-31T06:29:02;14.90;;;5.15;;
8050;SDS011;4068;42.158;24.732;2022-10-31T06:31:27;10.18;;;4.13;;
8050;SDS011;4068;42.158;24.732;2022-10-31T06:33:53;13.35;;;3.97;;
8050;SDS011;4068;42.158;24.732;2022-10-31T06:36:18;13.80;;;5.13;;
8050;SDS011;4068;42.158;24.732;2022-10-31T06:38:44;9.52;;;3.95;;
8050;SDS011;4068;42.158;24.732;2022-10-31T06:41:09;8.00;;;3.38;;
8050;SDS011;4068;42.158;24.732;2022-10-31T06:43:34;6.10;;;3.70;;
8050;SDS011;4068;42.158;24.732;2022-10-31T06:46:03;8.13;;;4.00;;
8050;SDS011;4068;42.158;24.732;2022-10-31T06:48:29;6.05;;;3.78;;
8050;SDS011;4068;42.158;24.732;2022-10-31T06:50:58;14.52;;;4.20;;
8050;SDS011;4068;42.158;24.732;2022-10-31T06:53:25;11.07;;;3.70;;
8050;SDS011;4068;42.158;24.732;2022-10-31T06:55:51;9.80;;;4.13;;
8050;SDS011;4068;42.158;24.732;2022-10-31T06:58:16;8.82;;;4.30;;
8050;SDS011;4068;42.158;24.732;2022-10-31T07:00:42;15.98;;;5.93;;
8050;SDS011;4068;42.158;24.732;2022-10-31T07:03:11;14.45;;;6.30;;
8050;SDS011;4068;42.158;24.732;2022-10-31T07:05:37;11.05;;;4.53;;
8050;SDS011;4068;42.158;24.732;2022-10-31T07:08:04;11.70;;;4.47;;
8050;SDS011;4068;42.158;24.732;2022-10-31T07:10:32;16.55;;;4.65;;
8050;SDS011;4068;42.158;24.732;2022-10-31T07:13:00;14.88;;;4.25;;
8050;SDS011;4068;42.158;24.732;2022-10-31T07:15:27;12.82;;;3.90;;
8050;SDS011;4068;42.158;24.732;2022-10-31T07:17:58;9.05;;;3.83;;
8050;SDS011;4068;42.158;24.732;2022-10-31T07:20:26;10.15;;;3.45;;
8050;SDS011;4068;42.158;24.732;2022-10-31T07:22:52;9.35;;;3.25;;
8050;SDS011;4068;42.158;24.732;2022-10-31T07:25:17;7.15;;;3.47;;
8050;SDS011;4068;42.158;24.732;2022-10-31T07:27:43;13.02;;;3.90;;
8050;SDS011;4068;42.158;24.732;2022-10-31T07:30:09;10.73;;;3.85;;
8050;SDS011;4068;42.158;24.732;2022-10-31T07:33:09;7.75;;;3.72;;
8050;SDS011;4068;42.158;24.732;2022-10-31T07:35:28;4.65;;;3.60;;
8050;SDS011;4068;42.158;24.732;2022-10-31T07:37:54;8.00;;;3.58;;
8050;SDS011;4068;42.158;24.732;2022-10-31T07:40:20;13.70;;;4.82;;
8050;SDS011;4068;42.158;24.732;2022-10-31T07:42:47;13.63;;;4.18;;
8050;SDS011;4068;42.158;24.732;2022-10-31T07:45:15;9.13;;;3.50;;
8050;SDS011;4068;42.158;24.732;2022-10-31T07:50:10;21.10;;;4.20;;
8050;SDS011;4068;42.158;24.732;2022-10-31T07:52:38;9.27;;;3.95;;
8050;SDS011;4068;42.158;24.732;2022-10-31T07:55:03;12.70;;;4.10;;
8050;SDS011;4068;42.158;24.732;2022-10-31T07:57:29;6.57;;;4.13;;
8050;SDS011;4068;42.158;24.732;2022-10-31T07:59:55;13.73;;;5.70;;
8050;SDS011;4068;42.158;24.732;2022-10-31T08:02:20;12.50;;;4.75;;
8050;SDS011;4068;42.158;24.732;2022-10-31T08:04:46;9.55;;;4.10;;
8050;SDS011;4068;42.158;24.732;2022-10-31T08:07:11;6.10;;;4.13;;
8050;SDS011;4068;42.158;24.732;2022-10-31T08:09:37;15.82;;;4.70;;
8050;SDS011;4068;42.158;24.732;2022-10-31T08:12:02;10.07;;;3.65;;
8050;SDS011;4068;42.158;24.732;2022-10-31T08:14:28;8.85;;;5.00;;
8050;SDS011;4068;42.158;24.732;2022-10-31T08:16:53;15.50;;;3.70;;
8050;SDS011;4068;42.158;24.732;2022-10-31T08:19:19;18.13;;;3.97;;
8050;SDS011;4068;42.158;24.732;2022-10-31T08:21:45;6.55;;;3.80;;
8050;SDS011;4068;42.158;24.732;2022-10-31T08:24:11;7.35;;;3.55;;
8050;SDS011;4068;42.158;24.732;2022-10-31T08:26:36;6.53;;;3.30;;
8050;SDS011;4068;42.158;24.732;2022-10-31T08:29:05;14.07;;;4.50;;
8050;SDS011;4068;42.158;24.732;2022-10-31T08:31:30;11.38;;;4.05;;
8050;SDS011;4068;42.158;24.732;2022-10-31T08:33:55;9.98;;;3.92;;
8050;SDS011;4068;42.158;24.732;2022-10-31T08:36:21;7.40;;;4.47;;
8050;SDS011;4068;42.158;24.732;2022-10-31T08:38:46;18.50;;;4.30;;
8050;SDS011;4068;42.158;24.732;2022-10-31T08:41:12;10.57;;;3.78;;
8050;SDS011;4068;42.158;24.732;2022-10-31T08:43:38;8.20;;;3.35;;
8050;SDS011;4068;42.158;24.732;2022-10-31T08:46:03;10.38;;;3.50;;
8050;SDS011;4068;42.158;24.732;2022-10-31T08:48:29;9.10;;;5.03;;
8050;SDS011;4068;42.158;24.732;2022-10-31T08:50:56;11.55;;;3.55;;
8050;SDS011;4068;42.158;24.732;2022-10-31T08:53:23;11.68;;;4.47;;
8050;SDS011;4068;42.158;24.732;2022-10-31T08:55:48;5.80;;;3.15;;
8050;SDS011;4068;42.158;24.732;2022-10-31T08:58:16;9.15;;;3.65;;
8050;SDS011;4068;42.158;24.732;2022-10-31T09:00:42;4.25;;;2.88;;
8050;SDS011;4068;42.158;24.732;2022-10-31T09:03:12;13.07;;;4.18;;
8050;SDS011;4068;42.158;24.732;2022-10-31T09:05:39;10.15;;;3.42;;
8050;SDS011;4068;42.158;24.732;2022-10-31T09:08:05;10.80;;;4.85;;
8050;SDS011;4068;42.158;24.732;2022-10-31T09:10:32;14.40;;;3.97;;
8050;SDS011;4068;42.158;24.732;2022-10-31T09:13:02;3.83;;;2.83;;
8050;SDS011;4068;42.158;24.732;2022-10-31T09:15:33;10.00;;;3.53;;
8050;SDS011;4068;42.158;24.732;2022-10-31T09:18:00;8.30;;;3.55;;
8050;SDS011;4068;42.158;24.732;2022-10-31T09:20:26;11.25;;;3.58;;
8050;SDS011;4068;42.158;24.732;2022-10-31T09:22:56;7.10;;;3.38;;
8050;SDS011;4068;42.158;24.732;2022-10-31T09:25:23;6.25;;;3.20;;
8050;SDS011;4068;42.158;24.732;2022-10-31T09:27:48;9.90;;;3.28;;
8050;SDS011;4068;42.158;24.732;2022-10-31T09:30:13;5.43;;;3.50;;
8050;SDS011;4068;42.158;24.732;2022-10-31T09:32:39;7.60;;;3.65;;
8050;SDS011;4068;42.158;24.732;2022-10-31T09:35:04;10.82;;;3.25;;
8050;SDS011;4068;42.158;24.732;2022-10-31T09:37:30;9.98;;;3.80;;
8050;SDS011;4068;42.158;24.732;2022-10-31T09:39:55;8.65;;;3.35;;
8050;SDS011;4068;42.158;24.732;2022-10-31T09:50:54;11.20;;;3.05;;
8050;SDS011;4068;42.158;24.732;2022-10-31T09:56:11;8.00;;;3.30;;
8050;SDS011;4068;42.158;24.732;2022-10-31T09:58:40;4.38;;;2.58;;
8050;SDS011;4068;42.158;24.732;2022-10-31T10:01:51;7.45;;;2.80;;
8050;SDS011;4068;42.158;24.732;2022-10-31T10:06:45;7.38;;;2.50;;
8050;SDS011;4068;42.158;24.732;2022-10-31T10:09:13;9.95;;;4.03;;
8050;SDS011;4068;42.158;24.732;2022-10-31T10:30:07;4.32;;;2.60;;
8050;SDS011;4068;42.158;24.732;2022-10-31T10:32:45;4.95;;;2.33;;
8050;SDS011;4068;42.158;24.732;2022-10-31T10:38:11;7.88;;;2.67;;
8050;SDS011;4068;42.158;24.732;2022-10-31T10:40:42;7.80;;;2.58;;
8050;SDS011;4068;42.158;24.732;2022-10-31T10:59:47;6.07;;;2.45;;
8050;SDS011;4068;42.158;24.732;2022-10-31T11:02:26;5.47;;;2.53;;
8050;SDS011;4068;42.158;24.732;2022-10-31T11:04:56;6.40;;;2.92;;
8050;SDS011;4068;42.158;24.732;2022-10-31T11:07:25;4.57;;;2.40;;
8050;SDS011;4068;42.158;24.732;2022-10-31T11:09:50;6.70;;;2.50;;
8050;SDS011;4068;42.158;24.732;2022-10-31T11:14:55;4.07;;;2.10;;
8050;SDS011;4068;42.158;24.732;2022-10-31T11:22:37;4.65;;;2.72;;
8050;SDS011;4068;42.158;24.732;2022-10-31T11:28:00;19.08;;;4.45;;
8050;SDS011;4068;42.158;24.732;2022-10-31T11:30:27;3.60;;;2.50;;
8050;SDS011;4068;42.158;24.732;2022-10-31T11:32:53;6.00;;;2.10;;
8050;SDS011;4068;42.158;24.732;2022-10-31T11:35:20;5.78;;;2.28;;
8050;SDS011;4068;42.158;24.732;2022-10-31T11:37:48;5.95;;;2.50;;
8050;SDS011;4068;42.158;24.732;2022-10-31T11:40:20;5.03;;;2.45;;
8050;SDS011;4068;42.158;24.732;2022-10-31T11:42:47;6.93;;;2.42;;
8050;SDS011;4068;42.158;24.732;2022-10-31T11:45:17;3.50;;;2.30;;
8050;SDS011;4068;42.158;24.732;2022-10-31T11:47:58;5.35;;;2.80;;
8050;SDS011;4068;42.158;24.732;2022-10-31T11:53:03;3.88;;;2.15;;
8050;SDS011;4068;42.158;24.732;2022-10-31T11:55:37;8.70;;;3.00;;
8050;SDS011;4068;42.158;24.732;2022-10-31T11:58:17;9.00;;;2.53;;
8050;SDS011;4068;42.158;24.732;2022-10-31T12:00:50;7.10;;;2.30;;
8050;SDS011;4068;42.158;24.732;2022-10-31T12:06:02;8.43;;;2.80;;
8050;SDS011;4068;42.158;24.732;2022-10-31T12:08:41;3.95;;;2.08;;
8050;SDS011;4068;42.158;24.732;2022-10-31T12:11:11;6.80;;;2.33;;
8050;SDS011;4068;42.158;24.732;2022-10-31T12:16:42;10.65;;;2.25;;
8050;SDS011;4068;42.158;24.732;2022-10-31T12:22:23;8.15;;;2.22;;
8050;SDS011;4068;42.158;24.732;2022-10-31T12:30:39;5.43;;;1.95;;
8050;SDS011;4068;42.158;24.732;2022-10-31T12:38:23;5.97;;;2.20;;
8050;SDS011;4068;42.158;24.732;2022-10-31T12:54:57;3.35;;;2.15;;
8050;SDS011;4068;42.158;24.732;2022-10-31T12:57:36;4.13;;;2.55;;
8050;SDS011;4068;42.158;24.732;2022-10-31T13:00:17;9.90;;;3.10;;
8050;SDS011;4068;42.158;24.732;2022-10-31T13:10:34;4.70;;;2.17;;
8050;SDS011;4068;42.158;24.732;2022-10-31T13:13:11;5.95;;;2.45;;
8050;SDS011;4068;42.158;24.732;2022-10-31T13:18:32;3.85;;;2.50;;
8050;SDS011;4068;42.158;24.732;2022-10-31T13:21:04;2.45;;;1.80;;
8050;SDS011;4068;42.158;24.732;2022-10-31T13:23:37;3.90;;;2.42;;
8050;SDS011;4068;42.158;24.732;2022-10-31T13:31:33;5.10;;;2.25;;
8050;SDS011;4068;42.158;24.732;2022-10-31T13:34:00;6.47;;;2.30;;
8050;SDS011;4068;42.158;24.732;2022-10-31T13:36:42;3.80;;;2.17;;
8050;SDS011;4068;42.158;24.732;2022-10-31T13:41:46;5.68;;;2.38;;
8050;SDS011;4068;42.158;24.732;2022-10-31T13:44:14;7.22;;;2.35;;
8050;SDS011;4068;42.158;24.732;2022-10-31T13:46:44;5.18;;;2.17;;
8050;SDS011;4068;42.158;24.732;2022-10-31T13:54:35;3.88;;;2.70;;
8050;SDS011;4068;42.158;24.732;2022-10-31T14:00:04;5.53;;;2.63;;
8050;SDS011;4068;42.158;24.732;2022-10-31T14:02:33;5.35;;;2.22;;
8050;SDS011;4068;42.158;24.732;2022-10-31T14:05:02;4.38;;;2.53;;
8050;SDS011;4068;42.158;24.732;2022-10-31T14:07:30;9.55;;;2.50;;
8050;SDS011;4068;42.158;24.732;2022-10-31T14:10:06;5.93;;;2.22;;
8050;SDS011;4068;42.158;24.732;2022-10-31T14:12:46;13.18;;;2.97;;
8050;SDS011;4068;42.158;24.732;2022-10-31T14:15:16;8.05;;;3.08;;
8050;SDS011;4068;42.158;24.732;2022-10-31T14:17:45;9.95;;;2.70;;
8050;SDS011;4068;42.158;24.732;2022-10-31T14:26:16;9.23;;;2.97;;
8050;SDS011;4068;42.158;24.732;2022-10-31T14:28:42;6.75;;;3.00;;
8050;SDS011;4068;42.158;24.732;2022-10-31T14:31:51;11.45;;;2.67;;
8050;SDS011;4068;42.158;24.732;2022-10-31T14:34:01;9.85;;;2.88;;
8050;SDS011;4068;42.158;24.732;2022-10-31T14:39:31;13.02;;;3.33;;
8050;SDS011;4068;42.158;24.732;2022-10-31T14:44:41;11.20;;;3.13;;
8050;SDS011;4068;42.158;24.732;2022-10-31T14:50:04;14.52;;;4.32;;
8050;SDS011;4068;42.158;24.732;2022-10-31T14:52:52;8.07;;;2.30;;
8050;SDS011;4068;42.158;24.732;2022-10-31T14:55:21;7.90;;;2.80;;
8050;SDS011;4068;42.158;24.732;2022-10-31T14:57:52;13.43;;;3.92;;
8050;SDS011;4068;42.158;24.732;2022-10-31T15:00:21;6.65;;;2.47;;
8050;SDS011;4068;42.158;24.732;2022-10-31T15:05:26;8.70;;;2.85;;
8050;SDS011;4068;42.158;24.732;2022-10-31T15:07:54;11.57;;;3.70;;
8050;SDS011;4068;42.158;24.732;2022-10-31T15:12:52;13.82;;;3.33;;
8050;SDS011;4068;42.158;24.732;2022-10-31T15:15:24;13.55;;;3.83;;
8050;SDS011;4068;42.158;24.732;2022-10-31T15:18:00;14.60;;;5.80;;
8050;SDS011;4068;42.158;24.732;2022-10-31T15:20:29;25.05;;;9.95;;
8050;SDS011;4068;42.158;24.732;2022-10-31T15:23:01;10.63;;;4.57;;
8050;SDS011;4068;42.158;24.732;2022-10-31T15:25:28;11.68;;;3.63;;
8050;SDS011;4068;42.158;24.732;2022-10-31T15:27:57;9.18;;;3.80;;
8050;SDS011;4068;42.158;24.732;2022-10-31T15:30:23;13.15;;;3.10;;
8050;SDS011;4068;42.158;24.732;2022-10-31T15:32:51;7.03;;;2.97;;
8050;SDS011;4068;42.158;24.732;2022-10-31T15:35:19;6.65;;;3.15;;
8050;SDS011;4068;42.158;24.732;2022-10-31T15:37:54;9.75;;;3.33;;
8050;SDS011;4068;42.158;24.732;2022-10-31T15:40:21;9.52;;;3.10;;
8050;SDS011;4068;42.158;24.732;2022-10-31T15:42:53;8.65;;;2.97;;
8050;SDS011;4068;42.158;24.732;2022-10-31T15:45:22;11.10;;;3.42;;
8050;SDS011;4068;42.158;24.732;2022-10-31T15:52:52;8.98;;;3.10;;
8050;SDS011;4068;42.158;24.732;2022-10-31T15:55:19;15.45;;;3.97;;
8050;SDS011;4068;42.158;24.732;2022-10-31T15:57:47;7.72;;;3.30;;
8050;SDS011;4068;42.158;24.732;2022-10-31T16:02:47;6.28;;;3.38;;
8050;SDS011;4068;42.158;24.732;2022-10-31T16:05:18;10.43;;;3.70;;
8050;SDS011;4068;42.158;24.732;2022-10-31T16:07:48;8.30;;;3.78;;
8050;SDS011;4068;42.158;24.732;2022-10-31T16:10:22;11.80;;;3.88;;
8050;SDS011;4068;42.158;24.732;2022-10-31T16:12:50;13.07;;;3.88;;
8050;SDS011;4068;42.158;24.732;2022-10-31T16:15:17;14.88;;;4.32;;
8050;SDS011;4068;42.158;24.732;2022-10-31T16:17:44;21.15;;;6.03;;
8050;SDS011;4068;42.158;24.732;2022-10-31T16:20:19;19.17;;;5.38;;
8050;SDS011;4068;42.158;24.732;2022-10-31T16:22:51;20.27;;;4.97;;
8050;SDS011;4068;42.158;24.732;2022-10-31T16:28:14;18.35;;;5.95;;
8050;SDS011;4068;42.158;24.732;2022-10-31T16:30:43;20.40;;;5.78;;
8050;SDS011;4068;42.158;24.732;2022-10-31T16:33:25;13.13;;;5.00;;
8050;SDS011;4068;42.158;24.732;2022-10-31T16:35:56;10.95;;;5.60;;
8050;SDS011;4068;42.158;24.732;2022-10-31T16:38:23;17.90;;;5.30;;
8050;SDS011;4068;42.158;24.732;2022-10-31T16:40:48;14.75;;;5.35;;
8050;SDS011;4068;42.158;24.732;2022-10-31T16:43:16;15.52;;;4.80;;
8050;SDS011;4068;42.158;24.732;2022-10-31T16:45:46;23.00;;;5.65;;
8050;SDS011;4068;42.158;24.732;2022-10-31T16:48:15;13.10;;;3.88;;
8050;SDS011;4068;42.158;24.732;2022-10-31T16:50:44;8.85;;;4.03;;
8050;SDS011;4068;42.158;24.732;2022-10-31T16:53:11;14.68;;;4.85;;
8050;SDS011;4068;42.158;24.732;2022-10-31T16:58:22;13.57;;;4.43;;
8050;SDS011;4068;42.158;24.732;2022-10-31T17:00:57;13.73;;;5.10;;
8050;SDS011;4068;42.158;24.732;2022-10-31T17:03:24;16.60;;;6.15;;
8050;SDS011;4068;42.158;24.732;2022-10-31T17:05:49;19.58;;;6.68;;
8050;SDS011;4068;42.158;24.732;2022-10-31T17:08:15;18.40;;;6.45;;
8050;SDS011;4068;42.158;24.732;2022-10-31T17:10:40;16.00;;;6.95;;
8050;SDS011;4068;42.158;24.732;2022-10-31T17:13:09;18.45;;;8.80;;
8050;SDS011;4068;42.158;24.732;2022-10-31T17:15:44;25.52;;;8.48;;
8050;SDS011;4068;42.158;24.732;2022-10-31T17:18:12;18.17;;;7.15;;
8050;SDS011;4068;42.158;24.732;2022-10-31T17:20:39;14.63;;;5.60;;
8050;SDS011;4068;42.158;24.732;2022-10-31T17:23:05;14.85;;;5.35;;
8050;SDS011;4068;42.158;24.732;2022-10-31T17:25:33;20.08;;;7.18;;
8050;SDS011;4068;42.158;24.732;2022-10-31T17:27:59;24.15;;;7.32;;
8050;SDS011;4068;42.158;24.732;2022-10-31T17:30:25;18.65;;;5.70;;
8050;SDS011;4068;42.158;24.732;2022-10-31T17:32:50;20.02;;;6.78;;
8050;SDS011;4068;42.158;24.732;2022-10-31T17:35:16;23.90;;;8.05;;
8050;SDS011;4068;42.158;24.732;2022-10-31T17:37:43;18.38;;;7.20;;
8050;SDS011;4068;42.158;24.732;2022-10-31T17:40:10;24.42;;;8.68;;
8050;SDS011;4068;42.158;24.732;2022-10-31T17:42:40;20.73;;;8.38;;
8050;SDS011;4068;42.158;24.732;2022-10-31T17:45:05;21.63;;;7.82;;
8050;SDS011;4068;42.158;24.732;2022-10-31T17:47:33;19.13;;;6.72;;
8050;SDS011;4068;42.158;24.732;2022-10-31T17:49:59;22.17;;;8.57;;
8050;SDS011;4068;42.158;24.732;2022-10-31T17:52:24;22.83;;;7.18;;
8050;SDS011;4068;42.158;24.732;2022-10-31T17:54:50;16.55;;;6.80;;
8050;SDS011;4068;42.158;24.732;2022-10-31T17:57:15;20.73;;;8.25;;
8050;SDS011;4068;42.158;24.732;2022-10-31T17:59:42;18.80;;;8.10;;
8050;SDS011;4068;42.158;24.732;2022-10-31T18:02:10;24.23;;;7.38;;
8050;SDS011;4068;42.158;24.732;2022-10-31T18:04:36;21.67;;;7.30;;
8050;SDS011;4068;42.158;24.732;2022-10-31T18:07:03;22.38;;;8.95;;
8050;SDS011;4068;42.158;24.732;2022-10-31T18:09:28;20.27;;;8.93;;
8050;SDS011;4068;42.158;24.732;2022-10-31T18:11:54;26.55;;;9.68;;
8050;SDS011;4068;42.158;24.732;2022-10-31T18:14:19;18.33;;;9.38;;
8050;SDS011;4068;42.158;24.732;2022-10-31T18:16:45;29.58;;;10.23;;
8050;SDS011;4068;42.158;24.732;2022-10-31T18:19:11;25.17;;;9.65;;